createdAt,value
2017-11-22T00:00:07.993Z,84.63
2017-11-22T00:01:17.820Z,84.53
2017-11-22T00:02:27.655Z,84.63
2017-11-22T00:03:37.472Z,84.53
2017-11-22T00:04:47.552Z,84.72
2017-11-22T00:05:57.426Z,84.82
2017-11-22T00:07:07.508Z,85.11
2017-11-22T00:08:17.595Z,84.92
2017-11-22T00:09:27.653Z,85.01
2017-11-22T00:10:37.485Z,84.72
2017-11-22T00:11:47.359Z,85.01
2017-11-22T00:12:57.159Z,84.92
2017-11-22T00:14:07.240Z,85.06
2017-11-22T00:15:16.788Z,84.88
2017-11-22T00:16:26.864Z,84.88
2017-11-22T00:17:36.985Z,85.06
2017-11-22T00:18:47.062Z,85.06
2017-11-22T00:19:57.133Z,85.06
2017-11-22T00:21:07.215Z,85.06
2017-11-22T00:22:17.048Z,85.06
2017-11-22T00:23:26.646Z,85.16
2017-11-22T00:24:36.719Z,84.97
2017-11-22T00:25:46.523Z,84.88
2017-11-22T00:26:56.641Z,84.69
2017-11-22T00:28:06.198Z,85.06
2017-11-22T00:29:16.019Z,84.69
2017-11-22T00:30:25.821Z,84.69
2017-11-22T00:31:35.620Z,84.88
2017-11-22T00:32:45.705Z,84.49
2017-11-22T00:33:55.781Z,84.49
2017-11-22T00:35:05.867Z,84.49
2017-11-22T00:36:15.673Z,84.4
2017-11-22T00:37:25.750Z,84.49
2017-11-22T00:38:35.834Z,84.59
2017-11-22T00:39:45.928Z,84.59
2017-11-22T00:40:55.786Z,84.59
2017-11-22T00:42:05.590Z,84.59
2017-11-22T00:43:15.414Z,84.49
2017-11-22T00:44:25.485Z,84.3
2017-11-22T00:45:35.547Z,84.49
2017-11-22T00:46:45.399Z,84.49
2017-11-22T00:47:55.484Z,84.49
2017-11-22T00:49:05.558Z,84.59
2017-11-22T00:50:15.105Z,84.69
2017-11-22T00:51:25.176Z,84.49
2017-11-22T00:52:35.277Z,84.3
2017-11-22T00:53:45.345Z,84.3
2017-11-22T00:54:55.425Z,84.49
2017-11-22T00:56:05.497Z,84.49
2017-11-22T00:57:15.052Z,84.49
2017-11-22T00:58:25.125Z,84.49
2017-11-22T00:59:34.939Z,84.4
2017-11-22T01:00:46.233Z,84.59
2017-11-22T01:01:56.317Z,84.49
2017-11-22T01:03:06.139Z,84.4
2017-11-22T01:04:16.255Z,84.49
2017-11-22T01:05:26.331Z,84.69
2017-11-22T01:06:35.876Z,84.3
2017-11-22T01:07:45.952Z,84.49
2017-11-22T01:08:56.021Z,84.4
2017-11-22T01:10:06.095Z,84.4
2017-11-22T01:11:15.912Z,84.4
2017-11-22T01:12:25.998Z,84.49
2017-11-22T01:13:36.069Z,84.49
2017-11-22T01:14:46.149Z,84.69
2017-11-22T01:15:56.038Z,84.78
2017-11-22T01:17:05.589Z,84.88
2017-11-22T01:18:15.656Z,85.06
2017-11-22T01:19:25.743Z,84.88
2017-11-22T01:20:35.818Z,84.88
2017-11-22T01:21:45.896Z,84.88
2017-11-22T01:22:55.705Z,84.88
2017-11-22T01:24:05.796Z,84.59
2017-11-22T01:25:15.342Z,85.16
2017-11-22T01:26:25.423Z,84.88
2017-11-22T01:27:35.010Z,84.59
2017-11-22T01:28:45.094Z,85.06
2017-11-22T01:29:55.185Z,84.88
2017-11-22T01:31:04.727Z,85.25
2017-11-22T01:32:14.848Z,84.97
2017-11-22T01:33:24.675Z,84.88
2017-11-22T01:34:34.746Z,85.21
2017-11-22T01:35:44.814Z,85.21
2017-11-22T01:36:54.647Z,85.02
2017-11-22T01:38:04.197Z,84.83
2017-11-22T01:39:14.285Z,85.02
2017-11-22T01:40:24.085Z,85.02
2017-11-22T01:41:33.921Z,84.83
2017-11-22T01:42:43.465Z,84.83
2017-11-22T01:43:53.005Z,84.74
2017-11-22T01:45:03.092Z,84.55
2017-11-22T01:46:13.179Z,84.64
2017-11-22T01:47:22.989Z,84.83
2017-11-22T01:48:33.059Z,84.92
2017-11-22T01:49:43.205Z,85.02
2017-11-22T01:50:53.028Z,84.92
2017-11-22T01:52:02.844Z,84.92
2017-11-22T01:53:12.654Z,84.64
2017-11-22T01:54:22.723Z,84.45
2017-11-22T01:55:32.574Z,84.45
2017-11-22T01:56:42.378Z,84.45
2017-11-22T01:57:53.453Z,84.83
2017-11-22T01:59:03.263Z,84.64
2017-11-22T02:00:13.077Z,84.64
2017-11-22T02:01:23.174Z,84.45
2017-11-22T02:02:33.238Z,84.74
2017-11-22T02:03:43.036Z,84.74
2017-11-22T02:04:53.115Z,84.64
2017-11-22T02:06:03.184Z,84.74
2017-11-22T02:07:13.019Z,84.74
2017-11-22T02:08:22.826Z,84.55
2017-11-22T02:09:32.902Z,84.74
2017-11-22T02:10:42.988Z,84.74
2017-11-22T02:11:52.532Z,84.83
2017-11-22T02:13:02.677Z,84.74
2017-11-22T02:14:12.470Z,84.74
2017-11-22T02:15:23.312Z,84.64
2017-11-22T02:16:33.404Z,84.55
2017-11-22T02:17:43.220Z,84.64
2017-11-22T02:18:53.029Z,84.74
2017-11-22T02:20:02.561Z,84.83
2017-11-22T02:21:12.381Z,85.02
2017-11-22T02:22:21.928Z,84.83
2017-11-22T02:23:31.745Z,84.92
2017-11-22T02:24:41.817Z,84.83
2017-11-22T02:25:51.928Z,84.92
2017-11-22T02:27:01.841Z,84.83
2017-11-22T02:28:11.935Z,84.92
2017-11-22T02:29:21.474Z,84.92
2017-11-22T02:30:31.601Z,85.02
2017-11-22T02:31:41.693Z,84.55
2017-11-22T02:32:51.246Z,85.02
2017-11-22T02:34:01.332Z,84.83
2017-11-22T02:35:11.398Z,85.02
2017-11-22T02:36:21.545Z,85.02
2017-11-22T02:37:31.387Z,85.02
2017-11-22T02:38:41.214Z,85.12
2017-11-22T02:39:51.296Z,85.02
2017-11-22T02:41:01.382Z,85.02
2017-11-22T02:42:11.468Z,85.02
2017-11-22T02:43:21.301Z,84.55
2017-11-22T02:44:31.097Z,85.02
2017-11-22T02:45:41.189Z,84.92
2017-11-22T02:46:51.034Z,85.02
2017-11-22T02:48:01.109Z,85.02
2017-11-22T02:49:10.923Z,84.83
2017-11-22T02:50:21.025Z,84.83
2017-11-22T02:51:31.117Z,84.83
2017-11-22T02:52:41.192Z,84.92
2017-11-22T02:53:51.338Z,84.83
2017-11-22T02:55:01.176Z,84.83
2017-11-22T02:56:11.254Z,84.92
2017-11-22T02:57:21.331Z,84.92
2017-11-22T02:58:31.394Z,84.83
2017-11-22T02:59:41.484Z,84.83
2017-11-22T03:00:51.286Z,84.83
2017-11-22T03:02:00.822Z,84.83
2017-11-22T03:34:21.691Z,81.71
2017-11-22T03:35:31.486Z,82.38
2017-11-22T03:36:41.551Z,83.42
2017-11-22T03:37:51.356Z,83.81
2017-11-22T03:39:01.439Z,84.76
2017-11-22T03:40:11.030Z,84.95
2017-11-22T03:41:22.318Z,85.42
2017-11-22T03:42:32.381Z,85.99
2017-11-22T03:43:42.192Z,86.47
2017-11-22T03:44:51.997Z,86.76
2017-11-22T03:46:01.834Z,86.47
2017-11-22T03:47:11.903Z,86.8
2017-11-22T03:48:21.702Z,86.32
2017-11-22T03:49:31.756Z,86.61
2017-11-22T03:50:41.857Z,86.22
2017-11-22T03:51:51.979Z,86.13
2017-11-22T03:53:02.056Z,86.27
2017-11-22T03:54:11.867Z,85.89
2017-11-22T03:55:21.429Z,85.6
2017-11-22T03:56:31.520Z,85.32
2017-11-22T03:57:41.585Z,85.84
2017-11-22T03:58:51.663Z,85.17
2017-11-22T04:00:01.490Z,84.98
2017-11-22T04:01:11.315Z,85.08
2017-11-22T04:02:21.402Z,85.08
2017-11-22T04:03:31.476Z,85.36
2017-11-22T04:04:41.022Z,85.17
2017-11-22T04:05:50.559Z,85.41
2017-11-22T04:07:00.100Z,85.21
2017-11-22T04:08:09.917Z,85.21
2017-11-22T04:09:20.003Z,85.21
2017-11-22T04:10:29.816Z,85.12
2017-11-22T04:11:39.632Z,85.21
2017-11-22T04:12:49.445Z,85.21
2017-11-22T04:13:58.984Z,85.41
2017-11-22T04:15:08.792Z,85.21
2017-11-22T04:16:18.867Z,85.41
2017-11-22T04:17:28.700Z,85.21
2017-11-22T04:18:38.259Z,85.12
2017-11-22T04:19:48.325Z,85.21
2017-11-22T04:20:58.149Z,85.41
2017-11-22T04:22:08.233Z,85.31
2017-11-22T04:23:17.780Z,85.41
2017-11-22T04:24:27.867Z,85.31
2017-11-22T04:25:37.662Z,84.92
2017-11-22T04:26:47.455Z,85.02
2017-11-22T04:27:56.991Z,85.31
2017-11-22T04:29:06.791Z,85.21
2017-11-22T04:30:16.591Z,85.12
2017-11-22T04:31:26.663Z,85.41
2017-11-22T04:32:36.743Z,85.41
2017-11-22T04:33:46.557Z,85.45
2017-11-22T04:34:56.097Z,85.25
2017-11-22T04:36:06.161Z,85.6
2017-11-22T04:37:15.971Z,85.16
2017-11-22T04:38:25.264Z,85.64
2017-11-22T04:39:35.340Z,85.25
2017-11-22T04:40:44.886Z,85.21
2017-11-22T04:41:54.957Z,85.25
2017-11-22T04:43:04.785Z,85.06
2017-11-22T04:44:14.631Z,85.16
2017-11-22T04:45:24.458Z,85.25
2017-11-22T04:46:34.529Z,85.64
2017-11-22T04:47:44.340Z,84.97
2017-11-22T04:48:54.411Z,85.64
2017-11-22T04:50:04.235Z,85.45
2017-11-22T04:51:13.774Z,85.06
2017-11-22T04:52:23.308Z,85.35
2017-11-22T04:53:33.112Z,85.45
2017-11-22T04:54:43.194Z,85.06
2017-11-22T04:55:53.022Z,85.06
2017-11-22T04:57:02.825Z,85.35
2017-11-22T04:58:12.377Z,85.06
2017-11-22T04:59:22.466Z,85.16
2017-11-22T05:00:32.546Z,85.06
2017-11-22T05:01:42.632Z,85.25
2017-11-22T05:02:52.195Z,85.25
2017-11-22T05:04:02.003Z,85.16
2017-11-22T05:05:11.824Z,85.25
2017-11-22T05:06:21.644Z,85.25
2017-11-22T05:07:31.726Z,85.35
2017-11-22T05:08:41.540Z,85.35
2017-11-22T05:09:51.651Z,85.06
2017-11-22T05:11:01.477Z,85.25
2017-11-22T05:12:11.575Z,85.45
2017-11-22T05:13:21.152Z,85.06
2017-11-22T05:14:30.946Z,85.25
2017-11-22T05:15:40.769Z,85.16
2017-11-22T05:16:50.320Z,84.97
2017-11-22T05:18:00.142Z,85.21
2017-11-22T05:19:10.241Z,85.3
2017-11-22T05:20:20.314Z,85.3
2017-11-22T05:21:30.128Z,85.06
2017-11-22T05:22:39.409Z,85.01
2017-11-22T05:23:49.510Z,85.11
2017-11-22T05:24:59.648Z,85.21
2017-11-22T05:26:09.456Z,85.01
2017-11-22T05:27:19.553Z,85.11
2017-11-22T05:28:29.632Z,85.01
2017-11-22T05:29:39.739Z,85.01
2017-11-22T05:30:49.870Z,85.01
2017-11-22T05:31:59.410Z,85.21
2017-11-22T05:33:09.512Z,85.01
2017-11-22T05:34:19.033Z,85.21
2017-11-22T05:35:28.579Z,85.39
2017-11-22T05:36:38.452Z,85.11
2017-11-22T05:37:48.526Z,85.21
2017-11-22T05:38:58.603Z,85.3
2017-11-22T05:40:08.666Z,85.3
2017-11-22T05:41:18.212Z,85.3
2017-11-22T05:42:28.075Z,85.39
2017-11-22T05:43:37.365Z,85.3
2017-11-22T05:44:47.443Z,85.21
2017-11-22T05:45:57.254Z,85.3
2017-11-22T05:47:07.340Z,85.3
2017-11-22T05:48:16.873Z,85.39
2017-11-22T05:49:26.963Z,85.11
2017-11-22T05:50:37.041Z,85.21
2017-11-22T05:51:47.140Z,85.11
2017-11-22T05:52:56.951Z,85.39
2017-11-22T05:54:07.043Z,85.39
2017-11-22T05:55:17.116Z,85.11
2017-11-22T05:56:27.211Z,85.39
2017-11-22T05:57:37.048Z,85.11
2017-11-22T05:58:47.123Z,85.49
2017-11-22T05:59:56.935Z,85.21
2017-11-22T06:01:07.764Z,85.53
2017-11-22T06:02:17.848Z,85.53
2017-11-22T06:03:27.646Z,85.63
2017-11-22T06:04:37.463Z,85.58
2017-11-22T06:05:47.338Z,85.58
2017-11-22T06:06:57.416Z,85.49
2017-11-22T06:08:07.237Z,85.21
2017-11-22T06:09:17.332Z,85.63
2017-11-22T06:10:27.408Z,85.49
2017-11-22T06:11:37.247Z,85.21
2017-11-22T06:12:46.769Z,85.25
2017-11-22T06:13:56.566Z,85.25
2017-11-22T06:15:06.698Z,85.25
2017-11-22T06:16:16.504Z,85.25
2017-11-22T06:17:25.769Z,85.25
2017-11-22T06:18:35.578Z,85.25
2017-11-22T06:19:45.129Z,85.25
2017-11-22T06:20:54.948Z,85.15
2017-11-22T06:22:04.779Z,85.25
2017-11-22T06:23:14.341Z,85.25
2017-11-22T06:24:25.554Z,85.53
2017-11-22T06:25:35.689Z,85.53
2017-11-22T06:26:45.500Z,85.53
2017-11-22T06:27:55.327Z,85.05
2017-11-22T06:29:05.404Z,85.25
2017-11-22T06:30:15.216Z,85.15
2017-11-22T06:31:24.489Z,85.25
2017-11-22T06:32:34.573Z,85.05
2017-11-22T06:33:44.643Z,85.05
2017-11-22T06:34:54.775Z,84.96
2017-11-22T06:36:04.584Z,85.05
2017-11-22T06:37:14.400Z,85.25
2017-11-22T06:38:24.492Z,85.34
2017-11-22T06:39:34.587Z,85.05
2017-11-22T06:40:44.197Z,85.25
2017-11-22T06:41:53.745Z,85.15
2017-11-22T06:43:03.859Z,85.53
2017-11-22T06:44:13.959Z,85.44
2017-11-22T06:45:24.034Z,85.25
2017-11-22T06:46:34.150Z,85.15
2017-11-22T06:47:43.963Z,85.15
2017-11-22T06:48:54.043Z,85.77
2017-11-22T06:50:03.852Z,85.38
2017-11-22T06:51:13.680Z,85.58
2017-11-22T06:52:23.803Z,85.1
2017-11-22T06:53:33.609Z,85.29
2017-11-22T06:54:43.682Z,85.19
2017-11-22T06:55:53.237Z,85.1
2017-11-22T06:57:03.322Z,85.19
2017-11-22T06:58:12.866Z,85
2017-11-22T06:59:22.945Z,84.72
2017-11-22T07:00:32.788Z,85
2017-11-22T07:01:42.870Z,85
2017-11-22T07:02:52.934Z,85.1
2017-11-22T07:04:03.029Z,85.1
2017-11-22T07:05:12.569Z,85.1
2017-11-22T07:06:22.655Z,84.91
2017-11-22T07:07:32.739Z,84.91
2017-11-22T07:08:42.546Z,84.72
2017-11-22T07:09:52.637Z,85
2017-11-22T07:11:02.199Z,84.72
2017-11-22T07:12:12.341Z,84.66
2017-11-22T07:13:21.892Z,84.66
2017-11-22T07:14:31.972Z,84.76
2017-11-22T07:15:41.829Z,84.85
2017-11-22T07:16:51.914Z,84.76
2017-11-22T07:18:01.763Z,84.56
2017-11-22T07:19:11.837Z,84.66
2017-11-22T07:20:21.917Z,84.66
2017-11-22T07:21:31.747Z,84.56
2017-11-22T07:22:41.840Z,84.7
2017-11-22T07:23:51.653Z,84.8
2017-11-22T07:25:01.735Z,84.99
2017-11-22T07:26:11.841Z,84.52
2017-11-22T07:27:21.637Z,84.99
2017-11-22T07:28:31.715Z,84.8
2017-11-22T07:29:41.520Z,84.32
2017-11-22T07:30:52.613Z,84.8
2017-11-22T07:32:02.689Z,84.8
2017-11-22T07:33:11.976Z,84.23
2017-11-22T07:34:21.793Z,84.42
2017-11-22T07:35:31.608Z,84.55
2017-11-22T07:36:41.432Z,84.36
2017-11-22T07:37:51.498Z,84.75
2017-11-22T07:39:01.563Z,84.75
2017-11-22T07:40:11.382Z,84.65
2017-11-22T07:41:21.467Z,84.65
2017-11-22T07:42:31.019Z,84.27
2017-11-22T07:43:41.114Z,84.46
2017-11-22T07:44:50.676Z,84.08
2017-11-22T07:46:00.239Z,84.27
2017-11-22T07:47:10.051Z,84.65
2017-11-22T07:48:19.856Z,84.27
2017-11-22T07:49:29.669Z,84.55
2017-11-22T07:50:39.736Z,84.08
2017-11-22T07:51:49.548Z,83.93
2017-11-22T07:52:59.354Z,84.36
2017-11-22T07:54:10.591Z,84.27
2017-11-22T07:55:20.452Z,84.46
2017-11-22T07:56:30.581Z,85.03
2017-11-22T07:57:40.653Z,84.75
2017-11-22T07:58:49.939Z,85.03
2017-11-22T07:59:59.767Z,84.75
2017-11-22T08:01:09.862Z,85.03
2017-11-22T08:02:19.725Z,85.08
2017-11-22T08:03:29.546Z,85.03
2017-11-22T08:04:39.354Z,84.46
2017-11-22T08:05:49.158Z,84.31
2017-11-22T08:06:59.232Z,84.12
2017-11-22T08:08:09.057Z,84.31
2017-11-22T08:09:18.343Z,84.69
2017-11-22T08:10:28.162Z,84.31
2017-11-22T08:11:37.713Z,83.93
2017-11-22T08:12:47.525Z,84.69
2017-11-22T08:13:57.366Z,84.69
2017-11-22T08:15:07.188Z,84.02
2017-11-22T08:16:17.284Z,83.93
2017-11-22T08:17:26.836Z,83.93
2017-11-22T08:18:36.382Z,83.93
2017-11-22T08:19:46.245Z,83.93
2017-11-22T08:20:56.343Z,83.68
2017-11-22T08:22:05.623Z,83.97
2017-11-22T08:23:15.173Z,83.87
2017-11-22T08:24:24.978Z,83.97
2017-11-22T08:25:34.841Z,84.06
2017-11-22T08:26:44.923Z,84.01
2017-11-22T08:27:54.771Z,83.39
2017-11-22T08:29:04.598Z,83.82
2017-11-22T08:30:14.692Z,83.72
2017-11-22T08:31:24.832Z,83.92
2017-11-22T08:32:34.673Z,83.72
2017-11-22T08:33:44.226Z,83.82
2017-11-22T08:34:54.322Z,83.92
2017-11-22T08:36:04.154Z,83.92
2017-11-22T08:37:14.290Z,83.53
2017-11-22T08:38:24.124Z,83.82
2017-11-22T08:39:34.222Z,84.2
2017-11-22T08:40:44.045Z,84.01
2017-11-22T08:41:53.883Z,83.82
2017-11-22T08:43:03.726Z,84.2
2017-11-22T08:44:13.822Z,84.01
2017-11-22T08:45:23.441Z,84.2
2017-11-22T08:46:33.515Z,84.01
2017-11-22T08:47:43.329Z,84.01
2017-11-22T08:48:53.195Z,84.2
2017-11-22T08:50:03.343Z,84.01
2017-11-22T08:51:13.425Z,83.72
2017-11-22T08:52:23.537Z,83.72
2017-11-22T08:53:33.627Z,83.63
2017-11-22T08:54:43.704Z,83.92
2017-11-22T08:55:53.819Z,83.92
2017-11-22T08:57:03.642Z,83.72
2017-11-22T08:58:13.744Z,83.72
2017-11-22T08:59:23.854Z,83.44
2017-11-22T09:00:33.738Z,83.92
2017-11-22T09:01:43.830Z,84.15
2017-11-22T09:02:53.663Z,83.86
2017-11-22T09:04:03.220Z,83.67
2017-11-22T09:05:13.321Z,84.05
2017-11-22T09:06:23.148Z,84.05
2017-11-22T09:07:33.099Z,83.58
2017-11-22T09:08:42.926Z,83.67
2017-11-22T09:09:52.510Z,83.58
2017-11-22T09:11:03.028Z,83.42
2017-11-22T09:12:12.910Z,83.61
2017-11-22T09:13:22.734Z,83.04
2017-11-22T09:14:32.567Z,83.04
2017-11-22T09:15:42.652Z,83.42
2017-11-22T09:16:52.980Z,83.18
2017-11-22T09:18:02.652Z,83.27
2017-11-22T09:19:12.794Z,83.27
2017-11-22T09:20:22.622Z,83.65
2017-11-22T09:21:32.463Z,82.7
2017-11-22T09:22:42.301Z,82.7
2017-11-22T09:23:52.141Z,83.18
2017-11-22T09:25:01.691Z,83.18
2017-11-22T09:26:11.786Z,82.98
2017-11-22T09:27:21.601Z,83.18
2017-11-22T09:28:31.694Z,83.18
2017-11-22T09:29:41.632Z,82.74
2017-11-22T09:30:51.478Z,82.93
2017-11-22T09:32:01.300Z,83.12
2017-11-22T09:33:11.418Z,83.12
2017-11-22T09:34:21.527Z,82.74
2017-11-22T09:35:31.627Z,82.84
2017-11-22T09:36:41.712Z,82.84
2017-11-22T09:37:51.802Z,82.84
2017-11-22T09:39:01.352Z,82.93
2017-11-22T09:40:11.365Z,82.87
2017-11-22T09:41:21.200Z,82.78
2017-11-22T09:42:31.310Z,82.59
2017-11-22T09:43:41.783Z,82.97
2017-11-22T09:44:52.715Z,83.64
2017-11-22T09:46:02.824Z,83.45
2017-11-22T09:47:12.970Z,83.64
2017-11-22T09:48:22.256Z,83.36
2017-11-22T09:49:32.364Z,83.07
2017-11-22T09:50:42.500Z,82.97
2017-11-22T09:51:52.610Z,82.68
2017-11-22T09:53:02.615Z,83.07
2017-11-22T09:54:12.736Z,83.64
2017-11-22T09:55:22.996Z,83.54
2017-11-22T09:56:33.098Z,83.54
2017-11-22T09:57:43.190Z,83.36
2017-11-22T09:58:53.389Z,82.97
2017-11-22T10:00:02.958Z,82.92
2017-11-22T10:01:13.091Z,83.4
2017-11-22T10:02:22.368Z,83.54
2017-11-22T10:03:32.482Z,83.2
2017-11-22T10:04:42.450Z,83.3
2017-11-22T10:05:52.550Z,83.3
2017-11-22T10:07:02.682Z,83.3
2017-11-22T10:08:12.795Z,83.59
2017-11-22T10:09:22.640Z,83.69
2017-11-22T10:10:32.790Z,83.59
2017-11-22T10:11:42.620Z,83.2
2017-11-22T10:12:52.461Z,83.4
2017-11-22T10:14:02.284Z,83.11
2017-11-22T10:15:12.161Z,83.59
2017-11-22T10:16:22.267Z,83.63
2017-11-22T10:17:32.088Z,82.92
2017-11-22T10:18:41.651Z,82.86
2017-11-22T10:19:51.484Z,82.86
2017-11-22T10:21:01.318Z,83.06
2017-11-22T10:22:11.150Z,82.86
2017-11-22T10:23:21.262Z,83.44
2017-11-22T10:24:31.386Z,83.63
2017-11-22T10:25:41.475Z,83.63
2017-11-22T10:26:51.557Z,83.63
2017-11-22T10:28:01.385Z,83.44
2017-11-22T10:29:11.491Z,82.96
2017-11-22T10:30:21.307Z,83.06
2017-11-22T10:31:31.396Z,82.67
2017-11-22T10:32:41.489Z,82.96
2017-11-22T10:33:51.668Z,82.76
2017-11-22T10:35:01.496Z,83
2017-11-22T10:36:11.610Z,83
2017-11-22T10:37:20.906Z,82.9
2017-11-22T10:38:30.996Z,82.9
2017-11-22T10:39:40.863Z,83.09
2017-11-22T10:40:50.693Z,83
2017-11-22T10:42:00.787Z,83.15
2017-11-22T10:43:10.900Z,83.44
2017-11-22T10:44:21.007Z,83.58
2017-11-22T10:45:31.174Z,83.58
2017-11-22T10:46:41.013Z,83.39
2017-11-22T10:47:50.838Z,83.48
2017-11-22T10:49:00.692Z,83.19
2017-11-22T10:50:10.267Z,83.19
2017-11-22T10:51:20.359Z,83.67
2017-11-22T10:52:30.467Z,83.39
2017-11-22T10:53:40.305Z,83.29
2017-11-22T10:54:50.116Z,83.67
2017-11-22T10:56:00.894Z,83.19
2017-11-22T10:57:10.769Z,83.39
2017-11-22T10:58:20.335Z,83
2017-11-22T10:59:30.426Z,83.86
2017-11-22T11:00:40.262Z,83
2017-11-22T11:01:50.090Z,83.09
2017-11-22T11:02:59.979Z,83
2017-11-22T11:04:10.113Z,83.29
2017-11-22T11:05:19.955Z,82.81
2017-11-22T11:06:30.054Z,83.14
2017-11-22T11:07:40.168Z,82.75
2017-11-22T11:08:50.005Z,83.14
2017-11-22T11:09:59.312Z,83.23
2017-11-22T11:11:09.138Z,82.94
2017-11-22T11:12:18.714Z,82.94
2017-11-22T11:13:28.848Z,83.14
2017-11-22T11:14:38.997Z,83.04
2017-11-22T11:15:49.100Z,83.14
2017-11-22T11:16:58.716Z,83.14
2017-11-22T11:18:08.268Z,83.14
2017-11-22T11:19:19.016Z,82.94
2017-11-22T11:20:29.187Z,83.33
2017-11-22T11:21:39.351Z,82.89
2017-11-22T11:22:49.209Z,82.89
2017-11-22T11:23:59.053Z,83.28
2017-11-22T11:25:08.910Z,83.28
2017-11-22T11:26:19.069Z,83.28
2017-11-22T11:27:29.258Z,83.08
2017-11-22T11:28:38.830Z,83.18
2017-11-22T11:29:48.672Z,83.28
2017-11-22T11:30:58.796Z,82.98
2017-11-22T11:32:08.681Z,83.08
2017-11-22T11:33:18.513Z,83.18
2017-11-22T11:34:28.799Z,82.89
2017-11-22T11:35:38.921Z,83.37
2017-11-22T11:36:48.775Z,83.37
2017-11-22T11:37:58.671Z,83.56
2017-11-22T11:39:08.518Z,83.28
2017-11-22T11:40:18.098Z,83.28
2017-11-22T11:41:28.205Z,83.22
2017-11-22T11:42:38.035Z,83.41
2017-11-22T11:43:47.912Z,83.51
2017-11-22T11:44:57.716Z,83.03
2017-11-22T11:46:07.558Z,83.41
2017-11-22T11:47:17.665Z,82.93
2017-11-22T11:48:27.800Z,82.89
2017-11-22T11:49:37.606Z,83.22
2017-11-22T11:50:47.179Z,82.93
2017-11-22T11:51:57.288Z,83.41
2017-11-22T11:53:07.118Z,83.28
2017-11-22T11:54:16.957Z,83.41
2017-11-22T11:55:27.086Z,83.31
2017-11-22T11:56:37.438Z,82.93
2017-11-22T11:57:47.268Z,82.83
2017-11-22T11:58:57.376Z,83.22
2017-11-22T12:00:07.227Z,83.22
2017-11-22T12:01:17.065Z,83.31
2017-11-22T12:02:26.893Z,83.41
2017-11-22T12:03:36.485Z,83.51
2017-11-22T12:04:46.580Z,83.03
2017-11-22T12:05:56.418Z,83.22
2017-11-22T12:07:06.257Z,83.12
2017-11-22T12:08:16.383Z,83.45
2017-11-22T12:09:26.509Z,83.36
2017-11-22T12:10:36.353Z,83.36
2017-11-22T12:11:46.401Z,83.45
2017-11-22T12:12:56.036Z,83.36
2017-11-22T12:14:06.131Z,83.36
2017-11-22T12:15:15.963Z,83.55
2017-11-22T12:16:25.800Z,83.45
2017-11-22T12:17:35.905Z,83.26
2017-11-22T12:18:46.023Z,83.45
2017-11-22T12:19:56.130Z,83.16
2017-11-22T12:21:05.975Z,82.2
2017-11-22T12:22:16.075Z,81.51
2017-11-22T12:23:25.373Z,80.62
2017-11-22T12:24:35.260Z,79.89
2017-11-22T12:25:45.384Z,79.49
2017-11-22T12:26:55.478Z,78.17
2017-11-22T12:28:05.337Z,76.93
2017-11-22T12:29:16.520Z,79
2017-11-22T12:30:26.679Z,80.24
2017-11-22T12:31:36.517Z,82.29
2017-11-22T12:32:46.073Z,83.27
2017-11-22T12:33:56.164Z,82.17
2017-11-22T12:35:06.003Z,80.08
2017-11-22T12:36:16.167Z,78.59
2017-11-22T12:37:26.002Z,77.06
2017-11-22T12:38:35.853Z,76.37
2017-11-22T12:39:45.677Z,76.25
2017-11-22T12:40:55.250Z,77.25
2017-11-22T12:42:05.402Z,80.05
2017-11-22T12:43:16.814Z,80.8
2017-11-22T12:44:26.931Z,82.33
2017-11-22T12:45:37.035Z,83.41
2017-11-22T12:46:47.135Z,83.66
2017-11-22T12:47:57.952Z,84.68
2017-11-22T12:49:07.527Z,84.44
2017-11-22T12:50:17.651Z,84.31
2017-11-22T12:51:27.734Z,84.59
2017-11-22T12:52:38.482Z,84.27
2017-11-22T12:53:48.593Z,84.27
2017-11-22T12:54:58.665Z,84.42
2017-11-22T12:56:08.763Z,84.61
2017-11-22T12:57:18.874Z,84.8
2017-11-22T12:58:28.454Z,84.66
2017-11-22T12:59:38.346Z,84.22
2017-11-22T13:00:48.441Z,84.18
2017-11-22T13:01:58.520Z,84.47
2017-11-22T13:03:08.635Z,84.18
2017-11-22T13:04:18.792Z,84.47
2017-11-22T13:05:28.946Z,83.99
2017-11-22T13:06:39.049Z,84.09
2017-11-22T13:07:49.162Z,84.28
2017-11-22T13:08:59.263Z,84.18
2017-11-22T13:10:09.393Z,83.56
2017-11-22T13:11:19.548Z,83.37
2017-11-22T13:12:29.666Z,83.75
2017-11-22T13:13:39.510Z,83.47
2017-11-22T13:14:49.632Z,83.75
2017-11-22T13:15:59.719Z,83.37
2017-11-22T13:17:09.892Z,83.37
2017-11-22T13:18:19.967Z,83.37
2017-11-22T13:19:30.072Z,83.37
2017-11-22T13:20:39.649Z,83.56
2017-11-22T13:21:49.230Z,83.66
2017-11-22T13:22:59.118Z,83.56
2017-11-22T13:24:08.424Z,83.72
2017-11-22T13:25:18.543Z,84.14
2017-11-22T13:26:29.755Z,83.37
2017-11-22T13:27:39.852Z,84
2017-11-22T13:28:50.007Z,83.33
2017-11-22T13:29:59.840Z,84.1
2017-11-22T13:31:09.444Z,83.81
2017-11-22T13:32:19.309Z,84.19
2017-11-22T13:33:29.430Z,84.29
2017-11-22T13:34:39.505Z,84
2017-11-22T13:35:49.632Z,84.39
2017-11-22T13:36:59.470Z,84.16
2017-11-22T13:38:09.571Z,84.54
2017-11-22T13:39:19.140Z,84.34
2017-11-22T13:40:29.013Z,84.34
2017-11-22T13:41:39.121Z,84.34
2017-11-22T13:42:49.237Z,84.16
2017-11-22T13:43:59.247Z,84.44
2017-11-22T13:45:09.325Z,84.83
2017-11-22T13:46:19.160Z,84.44
2017-11-22T13:47:29.295Z,84.73
2017-11-22T13:48:39.436Z,84.92
2017-11-22T13:49:49.532Z,84.69
2017-11-22T13:50:59.393Z,84.69
2017-11-22T13:52:09.592Z,84.21
2017-11-22T13:53:19.698Z,84.4
2017-11-22T13:54:29.536Z,84.11
2017-11-22T13:55:39.361Z,84.3
2017-11-22T13:56:50.209Z,84.11
2017-11-22T13:58:00.406Z,84.11
2017-11-22T13:59:10.259Z,84.21
2017-11-22T14:00:20.108Z,85.07
2017-11-22T14:01:29.674Z,85.07
2017-11-22T14:02:39.215Z,84.88
2017-11-22T14:03:49.370Z,84.88
2017-11-22T14:04:59.484Z,84.3
2017-11-22T14:06:09.594Z,84.3
2017-11-22T14:07:19.433Z,84.21
2017-11-22T14:08:29.275Z,84.5
2017-11-22T14:09:39.746Z,84.64
2017-11-22T14:10:50.164Z,85.03
2017-11-22T14:11:59.735Z,84.55
2017-11-22T14:13:09.045Z,84.55
2017-11-22T14:14:18.863Z,84.55
2017-11-22T14:15:29.036Z,84.55
2017-11-22T14:16:38.868Z,84.84
2017-11-22T14:17:48.421Z,85.08
2017-11-22T14:18:58.521Z,84.8
2017-11-22T14:20:08.368Z,84.99
2017-11-22T14:21:18.546Z,84.99
2017-11-22T14:22:28.109Z,85.18
2017-11-22T14:23:38.205Z,85.37
2017-11-22T14:24:48.052Z,85.28
2017-11-22T14:25:57.343Z,85.47
2017-11-22T14:27:06.896Z,85.62
2017-11-22T14:28:16.986Z,85.14
2017-11-22T14:29:26.835Z,85.42
2017-11-22T14:30:36.917Z,85.62
2017-11-22T14:31:46.734Z,85.62
2017-11-22T14:32:56.623Z,85.81
2017-11-22T14:34:06.744Z,85.52
2017-11-22T14:35:16.928Z,85.42
2017-11-22T14:36:26.779Z,85.38
2017-11-22T14:37:36.844Z,85.67
2017-11-22T14:38:46.976Z,85.58
2017-11-22T14:39:57.064Z,85.38
2017-11-22T14:41:07.161Z,85.77
2017-11-22T14:42:17.265Z,85.58
2017-11-22T14:43:27.333Z,85.48
2017-11-22T14:44:37.413Z,85.58
2017-11-22T14:45:47.495Z,85.67
2017-11-22T14:46:57.584Z,85.67
2017-11-22T14:48:07.661Z,85.67
2017-11-22T14:49:17.480Z,85.67
2017-11-22T14:50:27.620Z,85.58
2017-11-22T14:51:37.431Z,85.48
2017-11-22T14:52:47.518Z,85.48
2017-11-22T14:53:57.650Z,85.48
2017-11-22T14:55:07.762Z,85.58
2017-11-22T14:56:17.931Z,85.67
2017-11-22T14:57:28.024Z,85.48
2017-11-22T14:58:38.106Z,86.05
2017-11-22T14:59:48.196Z,85.58
2017-11-22T15:00:58.961Z,85.77
2017-11-22T15:02:08.796Z,85.92
2017-11-22T15:03:18.896Z,85.92
2017-11-22T15:04:28.738Z,85.92
2017-11-22T15:05:38.601Z,85.34
2017-11-22T15:06:48.712Z,85.72
2017-11-22T15:07:59.047Z,85.72
2017-11-22T15:09:09.197Z,85.72
2017-11-22T15:10:19.306Z,85.44
2017-11-22T15:11:29.431Z,85.44
2017-11-22T15:12:38.723Z,85.63
2017-11-22T15:13:48.827Z,85.53
2017-11-22T15:14:58.941Z,85.72
2017-11-22T15:16:09.063Z,85.82
2017-11-22T15:17:19.178Z,85.72
2017-11-22T15:18:29.026Z,85.82
2017-11-22T15:19:39.149Z,85.72
2017-11-22T15:20:48.723Z,85.72
2017-11-22T15:21:58.591Z,85.72
2017-11-22T15:23:08.434Z,85.63
2017-11-22T15:24:18.270Z,85.72
2017-11-22T15:25:28.167Z,85.63
2017-11-22T15:26:37.999Z,85.63
2017-11-22T15:27:48.114Z,85.82
2017-11-22T15:28:58.219Z,85.82
2017-11-22T15:30:07.783Z,85.72
2017-11-22T15:31:17.667Z,85.72
2017-11-22T15:32:27.496Z,85.58
2017-11-22T15:33:37.622Z,85.82
2017-11-22T15:34:47.476Z,85.3